Brookfield, Georgia
Current Conditions -  °F | °C
As of 5:15 AM on Saturday 22 Nov 2014 (Local Time) from KTMA Reporting Station
Clear Clear  
Wind Chill: 44°   Ceiling: Unl
Heat Index: 47°   Visibility: 10mi
Dew Point: 41°   Wind: 5mph
Humidity: 81%   Direction: 60°ENE
Pressure: 30.36"   Gusts: NA
Location:  31.42°N, 83.39°W
Report Text: KTMA 221015Z AUTO 06004KT 10SM CLR 08/05 A3036 RMK AO2 T00810050
Loading
Personal Weather Stations






























Interactive Weather Map New forecast layout! Learn more

10-Day Weather Forecast

Advertisements
Track Severe Weather on mobile